Time;durP1;ratioP1;P1;durP2;ratioP2;P2;SDS_P1;SDS_P2;PMS_P1;PMS_P2;Temp;Humidity;BMP_temperature;BMP_pressure;BME280_temperature;BME280_humidity;BME280_pressure;Samples;Min_cycle;Max_cycle;Signal;HPM_P1;HPM_P2
2021/08/14 00:01:44;;;;;;;16.90;13.70;;;20.50;84.30;;;19.85;76.75;98500.59;4964007;28;20811;-79
2021/08/14 00:04:12;;;;;;;15.03;13.53;;;20.40;84.70;;;19.70;76.96;98490.34;4962112;28;20451;-79
2021/08/14 00:06:39;;;;;;;16.37;14.87;;;20.40;84.70;;;19.65;77.70;98494.72;4964109;28;20470;-79
2021/08/14 00:09:06;;;;;;;16.53;13.90;;;20.30;85.80;;;19.57;78.00;98488.91;4973188;28;20627;-79
2021/08/14 00:11:33;;;;;;;14.47;13.27;;;20.20;86.60;;;19.52;78.42;98506.97;4975312;28;20457;-79
2021/08/14 00:13:59;;;;;;;14.80;13.37;;;20.20;87.10;;;19.52;78.33;98506.97;4974050;28;20453;-81
2021/08/14 00:16:27;;;;;;;13.63;12.23;;;20.20;86.80;;;19.40;78.85;98503.59;4969307;28;20452;-80
2021/08/14 00:18:54;;;;;;;14.67;13.30;;;20.10;87.80;;;19.40;78.62;98506.31;4962354;28;20529;-79
2021/08/14 00:21:22;;;;;;;14.97;13.50;;;20.00;88.30;;;19.36;78.73;98507.94;4964215;28;20466;-79
2021/08/14 00:23:49;;;;;;;16.53;14.93;;;20.00;88.50;;;19.37;78.46;98515.06;4970661;28;20450;-79
2021/08/14 00:26:16;;;;;;;17.07;14.00;;;20.00;88.70;;;19.30;78.29;98495.28;4974778;28;20544;-79
2021/08/14 00:28:43;;;;;;;14.97;13.17;;;20.00;88.80;;;19.31;78.65;98510.63;4969293;28;20452;-79
2021/08/14 00:31:10;;;;;;;15.77;14.17;;;20.00;88.70;;;19.31;78.84;98505.13;4972444;28;20472;-79
2021/08/14 00:33:37;;;;;;;16.63;14.93;;;19.90;89.30;;;19.28;78.99;98508.41;4971267;28;20470;-80
2021/08/14 00:36:05;;;;;;;14.60;13.33;;;19.90;89.70;;;19.17;79.33;98511.03;4968857;28;20458;-79
2021/08/14 00:38:33;;;;;;;16.10;14.63;;;19.90;89.90;;;19.02;79.62;98497.22;4974608;28;20464;-79
2021/08/14 00:41:00;;;;;;;15.63;14.00;;;19.80;90.00;;;19.01;79.76;98506.50;4965464;28;20443;-79
2021/08/14 00:43:27;;;;;;;16.67;13.00;;;19.70;90.30;;;19.04;79.87;98495.06;4976981;28;21302;-79
2021/08/14 00:45:55;;;;;;;18.00;13.80;;;19.70;90.50;;;18.94;80.08;98496.56;4950317;28;20449;-79
2021/08/14 00:48:22;;;;;;;15.50;14.00;;;19.70;90.40;;;19.02;80.16;98510.91;4973265;28;20544;-78
2021/08/14 00:50:49;;;;;;;16.50;14.90;;;19.70;90.80;;;18.97;80.25;98496.06;4960738;28;21939;-79
2021/08/14 00:53:16;;;;;;;16.00;14.43;;;19.70;91.00;;;18.98;80.46;98497.69;4972696;28;20982;-79
2021/08/14 00:55:45;;;;;;;15.20;13.80;;;19.60;91.30;;;18.89;80.90;98502.00;4964551;28;20466;-79
2021/08/14 00:58:13;;;;;;;16.23;14.63;;;19.60;91.40;;;18.89;80.81;98499.28;4974920;28;21083;-79
2021/08/14 01:00:41;;;;;;;16.90;15.30;;;19.50;91.50;;;18.85;80.81;98508.25;4959921;28;20450;-79
2021/08/14 01:03:08;;;;;;;16.53;14.90;;;19.50;91.70;;;18.82;80.88;98504.09;4959358;28;20545;-78
2021/08/14 01:05:36;;;;;;;16.80;15.13;;;19.50;91.80;;;18.73;81.20;98506.47;4966251;28;20506;-80
2021/08/14 01:08:05;;;;;;;15.83;14.23;;;19.40;91.80;;;18.71;81.25;98505.06;4979517;28;20475;-79
2021/08/14 01:10:33;;;;;;;17.53;15.83;;;19.30;92.10;;;18.60;81.60;98502.25;4967435;28;20453;-78
2021/08/14 01:13:01;;;;;;;16.87;15.23;;;19.30;92.20;;;18.58;81.94;98498.09;4981369;28;20452;-79
2021/08/14 01:15:29;;;;;;;17.00;15.10;;;19.20;92.70;;;18.51;82.29;98496.41;4959550;28;20485;-80
2021/08/14 01:17:58;;;;;;;18.87;16.90;;;19.20;93.00;;;18.49;82.16;98498.53;4972424;28;20473;-79
2021/08/14 01:20:25;;;;;;;16.70;15.10;;;19.10;93.20;;;18.37;82.27;98492.41;4959335;28;20986;-79
2021/08/14 01:22:52;;;;;;;17.20;15.40;;;19.10;93.10;;;18.28;82.82;98478.34;4958106;28;20831;-79
2021/08/14 01:25:20;;;;;;;17.37;15.77;;;19.00;93.40;;;18.36;82.52;98494.31;4971181;28;20450;-80
2021/08/14 01:27:49;;;;;;;17.80;15.90;;;19.00;93.70;;;18.37;82.64;98498.69;4965112;28;20508;-79
2021/08/14 01:30:16;;;;;;;16.00;14.50;;;19.00;93.90;;;18.31;83.10;98490.66;4977658;28;20484;-78
2021/08/14 01:32:43;;;;;;;17.20;15.80;;;19.00;94.60;;;18.25;83.41;98497.97;4976287;28;20526;-79
2021/08/14 01:35:11;;;;;;;15.90;14.60;;;18.90;94.70;;;18.12;83.77;98478.16;4973256;28;20464;-79
2021/08/14 01:37:38;;;;;;;16.63;15.10;;;18.90;95.10;;;18.21;84.11;98494.13;4978348;28;20460;-80
2021/08/14 01:40:08;;;;;;;17.23;15.53;;;18.90;95.40;;;18.16;84.28;98486.66;4976642;28;20449;-79
2021/08/14 01:42:35;;;;;;;15.87;14.47;;;18.90;95.60;;;18.21;83.84;98494.13;4964536;28;20450;-79
2021/08/14 01:45:05;;;;;;;16.87;15.30;;;18.80;95.60;;;18.21;83.70;98502.31;4977287;28;20457;-79
2021/08/14 01:47:32;;;;;;;17.93;14.93;;;18.80;95.50;;;18.12;83.76;98489.09;4983445;28;20500;-79
2021/08/14 01:49:59;;;;;;;17.40;15.67;;;18.80;95.50;;;18.06;83.73;98484.63;4965415;28;20956;-78
2021/08/14 01:52:26;;;;;;;16.40;15.00;;;18.80;95.60;;;18.15;84.14;98497.88;4975106;28;20467;-78
2021/08/14 01:54:53;;;;;;;16.20;14.70;;;18.80;96.00;;;18.15;83.93;98495.94;4970484;28;20445;-79
2021/08/14 01:57:20;;;;;;;17.40;15.93;;;18.80;95.70;;;18.10;84.12;98499.44;4965619;28;20446;-79
2021/08/14 01:59:47;;;;;;;16.90;15.40;;;18.80;96.00;;;18.14;84.10;98498.97;4957109;28;20458;-79
2021/08/14 02:02:15;;;;;;;16.67;15.00;;;18.70;96.10;;;18.11;84.06;98495.63;4963799;28;20449;-79
2021/08/14 02:04:42;;;;;;;17.77;16.20;;;18.80;96.10;;;18.07;84.36;98499.94;4967673;28;20449;-78
2021/08/14 02:07:09;;;;;;;18.93;17.13;;;18.70;96.20;;;18.01;84.54;98497.38;4974204;28;20471;-79
2021/08/14 02:09:35;;;;;;;17.87;16.10;;;18.70;96.40;;;17.73;84.87;98461.75;4957066;28;21100;-78
2021/08/14 02:12:03;;;;;;;18.87;17.00;;;18.70;96.70;;;17.84;85.45;98496.34;4974703;28;20545;-79
2021/08/14 02:14:30;;;;;;;17.90;16.30;;;18.60;97.20;;;17.71;85.20;98485.75;4971869;28;20452;-80
2021/08/14 02:16:57;;;;;;;20.00;17.77;;;18.50;97.20;;;17.70;85.74;98489.56;4977973;28;20457;-79
2021/08/14 02:19:25;;;;;;;19.90;18.07;;;18.40;97.50;;;17.62;85.98;98481.78;4967244;28;20535;-79
2021/08/14 02:21:52;;;;;;;19.03;17.50;;;18.40;98.30;;;17.67;86.10;98490.91;4983929;28;20477;-81
2021/08/14 02:24:19;;;;;;;20.10;18.20;;;18.30;98.90;;;17.68;86.08;98491.75;4970283;28;20479;-79
2021/08/14 02:26:46;;;;;;;18.63;16.90;;;18.30;99.10;;;17.70;86.06;98495.03;4982466;28;20447;-79
2021/08/14 02:29:13;;;;;;;19.87;18.17;;;18.30;99.30;;;17.60;86.16;98479.31;4964953;28;20489;-79
2021/08/14 02:31:40;;;;;;;19.33;17.70;;;18.30;99.40;;;17.65;86.06;98497.69;4962280;28;20453;-80
2021/08/14 02:34:06;;;;;;;19.97;18.17;;;18.30;99.20;;;17.46;86.14;98467.09;4968287;28;20530;-79
2021/08/14 02:36:35;;;;;;;20.13;18.13;;;18.30;99.40;;;17.55;86.48;98496.47;4970296;28;20441;-79
2021/08/14 02:39:02;;;;;;;19.83;18.10;;;18.30;99.40;;;17.42;86.93;98492.16;4961994;28;20450;-80
2021/08/14 02:41:28;;;;;;;20.73;18.83;;;18.20;99.80;;;17.47;87.23;98496.88;4967687;28;20450;-79
2021/08/14 02:43:55;;;;;;;20.17;18.13;;;18.20;99.90;;;17.32;87.24;98499.34;4973860;28;20476;-80
2021/08/14 02:46:23;;;;;;;20.27;18.33;;;18.10;99.90;;;17.24;87.68;98493.25;4963501;28;20532;-79
2021/08/14 02:48:50;;;;;;;20.27;18.33;;;18.10;99.90;;;17.27;87.94;98495.47;4971620;28;20465;-80
2021/08/14 02:51:17;;;;;;;20.57;18.50;;;18.00;99.90;;;17.17;87.67;98489.84;4966831;28;20842;-80
2021/08/14 02:53:45;;;;;;;21.83;19.60;;;18.00;99.90;;;17.11;87.85;98488.91;4960900;28;20466;-80
2021/08/14 02:56:12;;;;;;;21.20;19.33;;;17.90;99.90;;;17.19;88.40;98490.41;4962999;28;20484;-79
2021/08/14 02:58:39;;;;;;;22.47;20.40;;;17.90;99.90;;;17.12;88.15;98484.28;4966297;28;20969;-81
2021/08/14 03:01:06;;;;;;;21.57;19.57;;;17.90;99.90;;;17.02;88.66;98486.84;4966377;28;20950;-79
2021/08/14 03:03:33;;;;;;;22.50;20.33;;;17.80;99.90;;;17.02;88.58;98489.56;4968990;28;20466;-80
2021/08/14 03:06:00;;;;;;;23.57;21.27;;;17.80;99.90;;;17.04;89.08;98488.25;4968178;28;20828;-79
2021/08/14 03:08:27;;;;;;;23.20;21.30;;;17.70;99.90;;;17.13;88.58;98484.03;4965428;28;20468;-79
2021/08/14 03:10:55;;;;;;;23.50;21.20;;;17.80;99.90;;;16.98;88.61;98473.66;4961921;28;20529;-80
2021/08/14 03:13:22;;;;;;;22.40;20.50;;;17.80;99.90;;;16.93;88.96;98476.31;4977838;28;20443;-80
2021/08/14 03:15:49;;;;;;;23.47;21.33;;;17.80;99.90;;;16.97;89.15;98482.91;4981990;28;20438;-81
2021/08/14 03:18:16;;;;;;;22.10;20.20;;;17.70;99.90;;;16.89;88.86;98472.41;4980912;28;20461;-79
2021/08/14 03:20:43;;;;;;;22.73;20.50;;;17.70;99.90;;;16.83;89.38;98476.13;4988743;28;20460;-80
2021/08/14 03:23:10;;;;;;;23.67;21.47;;;17.60;99.90;;;16.87;89.84;98480.00;4978347;28;20461;-79
2021/08/14 03:25:37;;;;;;;22.77;20.67;;;17.60;99.90;;;16.80;89.64;98484.81;4965386;28;20438;-79
2021/08/14 03:28:05;;;;;;;21.70;19.70;;;17.60;99.90;;;16.75;90.08;98480.06;4961082;28;20784;-79
2021/08/14 03:30:32;;;;;;;22.97;20.77;;;17.50;99.90;;;16.73;90.03;98470.47;4989066;28;20829;-79
2021/08/14 03:32:59;;;;;;;23.83;21.73;;;17.60;99.90;;;16.79;90.13;98483.16;4968706;28;20449;-79
2021/08/14 03:35:26;;;;;;;22.00;19.93;;;17.50;99.90;;;16.75;90.52;98476.50;4974762;28;20824;-79
2021/08/14 03:37:53;;;;;;;23.77;19.80;;;17.50;99.90;;;16.77;90.41;98477.09;4970170;28;20460;-79
2021/08/14 03:40:20;;;;;;;23.47;21.27;;;17.50;99.90;;;16.64;90.43;98467.31;4969862;28;20455;-79
2021/08/14 03:42:47;;;;;;;22.47;20.67;;;17.50;99.90;;;16.69;90.35;98475.59;4959162;28;20458;-80
2021/08/14 03:45:15;;;;;;;23.70;21.33;;;17.50;99.90;;;16.59;90.34;98476.22;4986496;28;20449;-80
2021/08/14 03:47:42;;;;;;;25.63;22.80;;;17.40;99.90;;;16.55;90.57;98485.97;4967818;28;20501;-80
2021/08/14 03:50:10;;;;;;;22.93;20.90;;;17.30;99.90;;;16.53;90.94;98485.38;4961806;28;20453;-79
2021/08/14 03:52:37;;;;;;;23.40;21.30;;;17.30;99.90;;;16.47;90.63;98484.44;4973926;28;20822;-80
2021/08/14 03:55:06;;;;;;;22.63;20.63;;;17.30;99.90;;;16.51;90.60;98495.72;4977206;28;20454;-81
2021/08/14 03:57:33;;;;;;;23.87;21.10;;;17.30;99.90;;;16.51;90.87;98496.53;4966531;28;20457;-80
2021/08/14 04:00:00;;;;;;;23.77;21.50;;;17.20;99.90;;;16.23;90.67;98459.16;4964887;28;20567;-79
2021/08/14 04:02:28;;;;;;;24.40;22.17;;;17.20;99.90;;;16.34;90.50;98482.84;4956550;28;20975;-80
2021/08/14 04:04:55;;;;;;;23.83;21.70;;;17.20;99.90;;;16.35;90.75;98481.78;4980188;28;21051;-80
2021/08/14 04:07:22;;;;;;;24.13;22.03;;;17.20;99.90;;;16.34;90.97;98490.19;4969161;28;20489;-80
2021/08/14 04:09:49;;;;;;;24.40;22.30;;;17.10;99.90;;;16.28;90.92;98487.34;4969221;28;21276;-79
2021/08/14 04:12:16;;;;;;;23.77;21.63;;;17.10;99.90;;;16.30;90.74;98495.28;4960762;28;20820;-80
2021/08/14 04:14:43;;;;;;;23.87;21.50;;;17.10;99.90;;;16.27;91.57;98485.72;4974639;28;21107;-81
2021/08/14 04:17:10;;;;;;;23.97;21.73;;;17.10;99.90;;;16.33;91.35;98489.38;4975075;28;20449;-81
2021/08/14 04:19:38;;;;;;;23.37;21.17;;;17.20;99.90;;;16.35;91.07;98484.50;4961282;28;20458;-79
2021/08/14 04:22:05;;;;;;;21.70;19.60;;;17.20;99.90;;;16.38;90.91;98492.19;4970233;28;20442;-79
2021/08/14 04:24:33;;;;;;;23.93;21.73;;;17.20;99.90;;;16.36;90.88;98488.88;4962597;28;20765;-80
2021/08/14 04:27:00;;;;;;;24.03;21.53;;;17.20;99.90;;;16.41;91.08;98493.63;4969880;28;20807;-79
2021/08/14 04:29:28;;;;;;;23.40;21.17;;;17.20;99.90;;;16.39;90.78;98466.56;4959879;28;20851;-79
2021/08/14 04:31:55;;;;;;;21.37;19.10;;;17.50;99.90;;;16.74;89.90;98485.75;4967169;28;20508;-79
2021/08/14 04:34:22;;;;;;;19.57;17.90;;;18.00;99.90;;;16.93;88.64;98476.31;4979136;28;20537;-80
2021/08/14 04:36:51;;;;;;;19.27;17.33;;;18.60;97.10;;;17.25;87.40;98464.03;4961046;28;20451;-80
2021/08/14 04:39:18;;;;;;;17.90;16.43;;;19.10;94.30;;;17.54;86.02;98474.84;4961113;28;20520;-79
2021/08/14 04:41:45;;;;;;;18.73;16.97;;;19.60;91.80;;;17.98;84.64;98493.25;4979194;28;20467;-80
2021/08/14 04:44:11;;;;;;;17.70;16.23;;;20.00;90.40;;;18.27;83.43;98495.81;4971760;28;20450;-81
2021/08/14 04:46:38;;;;;;;16.60;15.10;;;20.40;89.00;;;18.42;82.06;98489.72;4977378;28;20461;-80
2021/08/14 04:49:05;;;;;;;18.17;16.30;;;20.80;86.40;;;18.69;80.86;98495.22;4957529;28;20472;-80
2021/08/14 04:51:32;;;;;;;17.47;15.90;;;21.10;84.20;;;18.94;80.12;98507.53;4962043;28;20449;-80
2021/08/14 04:54:00;;;;;;;16.40;14.83;;;21.40;82.70;;;19.14;79.56;98500.63;4974252;28;20462;-80
2021/08/14 04:56:27;;;;;;;16.00;14.60;;;21.70;81.20;;;19.39;78.32;98505.47;4971443;28;20446;-79
2021/08/14 04:58:54;;;;;;;15.97;14.37;;;22.00;79.40;;;19.85;76.41;98493.19;4969890;28;20529;-80
2021/08/14 05:01:21;;;;;;;16.33;14.93;;;22.30;78.80;;;19.93;76.12;98505.59;4971879;28;20463;-80
2021/08/14 05:03:48;;;;;;;16.93;15.43;;;22.40;76.50;;;19.66;76.27;98471.69;4977398;28;20835;-80
2021/08/14 05:06:15;;;;;;;15.90;14.60;;;22.50;76.20;;;20.01;75.66;98507.03;4978209;28;20452;-80
2021/08/14 05:08:42;;;;;;;16.37;14.83;;;22.80;74.80;;;19.93;75.58;98491.91;4979271;28;20465;-80
2021/08/14 05:11:10;;;;;;;15.97;14.57;;;23.00;73.60;;;20.23;74.57;98499.47;4970805;28;21165;-80
2021/08/14 05:13:37;;;;;;;15.00;13.60;;;23.30;72.50;;;20.50;74.04;98514.13;4973404;28;20450;-81
2021/08/14 05:16:05;;;;;;;15.50;14.10;;;23.60;71.80;;;20.61;73.15;98499.34;4957893;28;20821;-80
2021/08/14 05:18:31;;;;;;;14.90;13.60;;;23.70;70.90;;;20.81;72.32;98508.75;4967123;28;20445;-80
2021/08/14 05:20:58;;;;;;;15.57;14.00;;;23.80;70.10;;;21.01;71.58;98496.97;4969438;28;20457;-80
2021/08/14 05:23:25;;;;;;;15.23;13.90;;;23.80;70.00;;;21.18;70.67;98515.97;4976626;28;20535;-80
2021/08/14 05:25:52;;;;;;;16.50;14.77;;;23.70;69.50;;;21.03;70.93;98515.94;4966080;28;20451;-80
2021/08/14 05:28:22;;;;;;;15.93;14.50;;;23.60;69.40;;;20.97;71.20;98514.28;4976371;28;20887;-82
2021/08/14 05:30:49;;;;;;;14.40;13.00;;;23.70;69.40;;;20.81;71.33;98511.50;4960583;28;20470;-80
2021/08/14 05:33:16;;;;;;;15.07;13.67;;;23.50;69.20;;;21.13;69.98;98524.19;4982698;28;20463;-80
2021/08/14 05:35:43;;;;;;;15.37;13.87;;;23.70;68.90;;;21.25;69.40;98529.44;4963776;28;20453;-80
2021/08/14 05:38:10;;;;;;;14.10;12.90;;;23.80;68.40;;;21.26;69.18;98528.34;4978085;28;20976;-81
2021/08/14 05:40:37;;;;;;;14.93;13.47;;;23.80;68.00;;;21.19;68.94;98525.84;4959504;28;20463;-79
2021/08/14 05:43:04;;;;;;;15.93;14.07;;;23.60;68.00;;;21.20;69.15;98529.41;4967821;28;20462;-79
2021/08/14 05:45:33;;;;;;;14.50;13.20;;;23.40;68.30;;;21.24;69.09;98538.78;4963323;28;20465;-79
2021/08/14 05:48:04;;;;;;;15.53;14.13;;;23.40;68.10;;;21.16;68.58;98534.66;4972479;28;20827;-79
2021/08/14 05:50:31;;;;;;;15.97;13.43;;;23.30;67.90;;;21.31;68.17;98541.25;4978620;28;20456;-79
2021/08/14 05:52:58;;;;;;;14.90;13.70;;;23.20;68.40;;;21.54;67.56;98548.13;4985681;28;20461;-80
2021/08/14 05:55:25;;;;;;;15.50;14.20;;;23.20;68.80;;;20.96;69.15;98516.22;4970391;28;20494;-80
2021/08/14 05:57:54;;;;;;;15.17;13.87;;;23.00;69.00;;;21.18;69.03;98535.19;4965116;28;20453;-79
2021/08/14 06:00:22;;;;;;;15.10;13.70;;;23.00;69.00;;;21.14;69.25;98547.81;4969464;28;20484;-80
2021/08/14 06:02:50;;;;;;;15.23;13.93;;;23.00;69.20;;;20.92;70.05;98543.38;4969779;28;20457;-79
2021/08/14 06:05:17;;;;;;;16.93;15.30;;;22.50;69.80;;;20.80;70.67;98540.88;4972565;28;20457;-80
2021/08/14 06:07:44;;;;;;;16.43;15.03;;;22.20;70.90;;;20.43;71.94;98541.00;4953674;28;20508;-79
2021/08/14 06:10:13;;;;;;;16.20;14.70;;;21.70;71.80;;;20.45;71.89;98549.78;4980188;28;20511;-79
2021/08/14 06:12:40;;;;;;;15.50;14.20;;;21.60;73.20;;;20.48;71.84;98543.75;4958468;28;20537;-79
2021/08/14 06:15:08;;;;;;;17.53;16.00;;;21.50;74.10;;;20.48;71.99;98547.34;4980742;28;21274;-80
2021/08/14 06:17:35;;;;;;;16.60;15.10;;;21.50;74.80;;;20.57;72.17;98539.41;4985597;28;20452;-79
2021/08/14 06:20:06;;;;;;;17.80;16.20;;;21.50;75.20;;;20.58;71.86;98543.78;4972048;28;20473;-79
2021/08/14 06:22:35;;;;;;;17.83;16.10;;;21.50;75.30;;;20.46;72.24;98534.97;4993082;28;20912;-79
2021/08/14 06:25:02;;;;;;;18.37;15.87;;;21.50;75.70;;;20.61;72.16;98539.66;4974649;28;20549;-79
2021/08/14 06:27:29;;;;;;;18.70;16.73;;;21.50;75.90;;;20.56;71.96;98535.00;5005325;28;20441;-79
2021/08/14 06:29:56;;;;;;;19.63;18.00;;;21.60;75.90;;;20.27;73.16;98540.91;4995588;28;20492;-81
2021/08/14 06:32:23;;;;;;;18.60;16.80;;;21.10;77.10;;;20.26;73.34;98547.50;4987684;28;20540;-79
2021/08/14 06:34:50;;;;;;;19.30;17.50;;;21.10;78.00;;;20.37;72.64;98543.69;4971580;28;20979;-81
2021/08/14 06:37:18;;;;;;;18.53;17.00;;;21.20;78.40;;;20.57;72.42;98560.53;4976415;28;20915;-79
2021/08/14 06:39:45;;;;;;;18.80;17.23;;;21.30;78.40;;;20.73;72.11;98548.50;4976840;28;20453;-79
2021/08/14 06:42:12;;;;;;;19.53;17.73;;;21.50;78.10;;;20.80;71.65;98546.38;4970427;28;20528;-82
2021/08/14 06:44:39;;;;;;;20.33;18.30;;;21.60;77.30;;;20.89;71.36;98549.41;4974667;28;20449;-79
2021/08/14 06:47:08;;;;;;;20.87;18.37;;;21.80;77.10;;;20.58;72.40;98532.81;4982377;28;20453;-79
2021/08/14 06:49:35;;;;;;;18.83;17.23;;;21.70;76.90;;;20.63;72.28;98541.06;4974582;28;20560;-81
2021/08/14 06:52:02;;;;;;;20.03;18.23;;;21.70;77.20;;;20.64;72.39;98541.91;4980922;28;20953;-80
2021/08/14 06:54:30;;;;;;;18.20;16.60;;;21.70;77.20;;;21.04;71.28;98547.81;4979671;28;20465;-79
2021/08/14 06:56:57;;;;;;;18.43;16.80;;;21.80;77.30;;;21.18;71.19;98556.34;4995750;28;20473;-79
2021/08/14 06:59:24;;;;;;;20.57;18.87;;;22.00;76.90;;;21.18;70.38;98550.84;4981774;28;20474;-80
2021/08/14 07:01:51;;;;;;;21.90;17.97;;;22.00;76.50;;;21.33;70.47;98555.53;4978869;28;20458;-79
2021/08/14 07:04:18;;;;;;;18.33;16.73;;;22.20;76.20;;;21.52;69.72;98551.16;4964994;28;20557;-79
2021/08/14 07:06:45;;;;;;;19.27;17.33;;;22.40;76.00;;;21.62;69.38;98555.00;4973625;28;20518;-79
2021/08/14 07:09:12;;;;;;;18.07;16.57;;;22.50;75.50;;;21.78;69.17;98553.94;4980528;28;20548;-79
2021/08/14 07:11:45;;;;;;;19.30;17.60;;;22.70;75.20;;;21.73;68.86;98526.41;4975913;28;20607;-79
2021/08/14 07:14:12;;;;;;;19.63;17.87;;;22.80;74.90;;;21.91;68.49;98554.44;4965013;28;20516;-79
2021/08/14 07:16:39;;;;;;;20.30;18.70;;;22.80;74.30;;;21.85;69.09;98541.81;4963048;28;20522;-79
2021/08/14 07:19:06;;;;;;;18.77;17.23;;;22.90;74.50;;;21.90;69.21;98550.03;4972860;28;20549;-80
2021/08/14 07:21:33;;;;;;;19.00;17.20;;;22.90;74.40;;;21.89;68.68;98535.47;4961731;28;20967;-79
2021/08/14 07:24:00;;;;;;;19.03;17.30;;;22.90;74.10;;;22.04;68.36;98545.63;4961720;28;20474;-79
2021/08/14 07:26:27;;;;;;;19.37;17.57;;;23.00;74.20;;;22.12;67.94;98533.22;4969369;28;20445;-79
2021/08/14 07:28:55;;;;;;;16.93;15.50;;;23.00;74.30;;;22.47;67.36;98548.03;4971488;28;20470;-81
2021/08/14 07:31:22;;;;;;;17.20;15.80;;;23.20;73.90;;;22.45;66.85;98522.69;4965304;28;20465;-80
2021/08/14 07:33:49;;;;;;;18.53;16.83;;;23.30;73.40;;;22.63;66.76;98540.50;4973889;28;20460;-79
2021/08/14 07:36:17;;;;;;;19.10;17.50;;;23.50;73.10;;;22.24;67.35;98516.41;4972125;28;20493;-80
2021/08/14 07:38:44;;;;;;;19.53;17.70;;;23.40;72.70;;;22.17;68.13;98532.38;4969160;28;20469;-79
2021/08/14 07:41:11;;;;;;;19.67;17.53;;;23.20;72.80;;;22.24;68.11;98532.94;4960908;28;20859;-79
2021/08/14 07:43:38;;;;;;;17.80;16.00;;;23.20;73.20;;;22.31;66.89;98478.41;4968149;28;20481;-80
2021/08/14 07:46:08;;;;;;;19.03;17.27;;;23.40;73.30;;;22.84;65.83;98520.28;4973224;28;20459;-80
2021/08/14 07:48:35;;;;;;;18.47;16.77;;;23.60;72.50;;;22.89;65.68;98532.13;4980295;28;20456;-79
2021/08/14 07:51:03;;;;;;;18.40;16.70;;;23.70;72.20;;;22.60;66.90;98523.75;4965944;28;20584;-79
2021/08/14 07:53:31;;;;;;;17.90;16.23;;;23.60;72.20;;;22.67;66.37;98512.41;4969648;28;20497;-79
2021/08/14 07:56:00;;;;;;;19.03;17.13;;;23.50;72.10;;;22.84;65.90;98515.63;4957728;28;20548;-79
2021/08/14 07:58:27;;;;;;;17.40;15.90;;;23.70;72.20;;;23.11;65.42;98525.34;4964878;28;20480;-81
2021/08/14 08:00:55;;;;;;;17.87;16.30;;;23.80;71.90;;;23.27;65.19;98519.75;4967308;28;20469;-79
2021/08/14 08:03:23;;;;;;;18.93;17.23;;;24.00;71.90;;;23.21;64.57;98511.50;4973836;28;20481;-80
2021/08/14 08:05:50;;;;;;;18.27;16.73;;;24.10;71.30;;;23.24;65.03;98520.31;4976851;28;20556;-80
2021/08/14 08:08:17;;;;;;;18.90;15.60;;;24.20;71.20;;;23.55;64.32;98506.31;4969875;28;20511;-80
2021/08/14 08:10:44;;;;;;;17.17;15.73;;;24.30;71.30;;;23.77;63.27;98511.34;4978595;28;20862;-80
2021/08/14 08:13:11;;;;;;;16.80;15.30;;;24.50;70.70;;;23.67;63.10;98473.66;4975402;28;20434;-80
2021/08/14 08:15:38;;;;;;;17.33;15.63;;;24.70;70.30;;;23.90;62.60;98510.66;4977313;28;20973;-80
2021/08/14 08:18:05;;;;;;;17.33;15.57;;;24.70;69.90;;;23.93;62.29;98503.75;4955102;28;20462;-80
2021/08/14 08:20:34;;;;;;;15.77;14.47;;;24.70;69.50;;;24.12;61.86;98514.06;4967057;28;20524;-80
2021/08/14 08:23:01;;;;;;;14.83;13.43;;;24.80;69.50;;;24.11;61.59;98506.91;4964717;28;20480;-80
2021/08/14 08:25:28;;;;;;;15.80;14.30;;;24.90;68.90;;;24.20;60.66;98505.16;4957890;28;20481;-80
2021/08/14 08:27:55;;;;;;;15.43;13.80;;;25.00;68.20;;;24.44;60.45;98507.06;4960610;28;20468;-80
2021/08/14 08:30:22;;;;;;;14.60;13.40;;;25.20;68.30;;;24.46;59.56;98491.00;4961264;28;20531;-81
2021/08/14 08:32:49;;;;;;;14.07;12.57;;;25.30;67.40;;;24.47;59.19;98498.16;4957539;28;20803;-80
2021/08/14 08:35:19;;;;;;;15.50;14.20;;;25.30;66.60;;;24.59;58.47;98501.31;4964176;28;20447;-80
2021/08/14 08:37:47;;;;;;;18.93;12.80;;;25.40;66.40;;;24.66;58.43;98500.16;4982683;28;20457;-79
2021/08/14 08:40:16;;;;;;;14.00;12.80;;;25.40;66.30;;;24.58;58.77;98494.16;4970196;28;20536;-80
2021/08/14 08:42:44;;;;;;;13.30;12.10;;;25.40;66.10;;;24.71;57.66;98503.66;4971459;28;20446;-79
2021/08/14 08:45:12;;;;;;;13.50;12.40;;;25.50;66.10;;;24.68;57.79;98497.91;4956984;28;20453;-80
2021/08/14 08:47:45;;;;;;;14.00;11.33;;;25.50;65.00;;;24.66;56.98;98497.41;4968492;28;20541;-80
2021/08/14 08:50:14;;;;;;;11.87;10.77;;;25.50;64.50;;;24.64;56.00;98494.09;4960976;28;20506;-80
2021/08/14 08:52:43;;;;;;;13.67;12.47;;;25.50;63.70;;;24.92;55.17;98489.59;4960884;28;20993;-81
2021/08/14 08:55:14;;;;;;;12.60;11.50;;;25.60;63.60;;;25.09;54.98;98483.50;4971674;28;21244;-80
2021/08/14 08:57:41;;;;;;;13.10;12.00;;;25.70;63.30;;;25.14;56.81;98488.97;4977174;28;20444;-79
2021/08/14 09:00:14;;;;;;;12.70;11.50;;;25.90;64.60;;;25.33;55.50;98488.13;4965596;28;20524;-80
2021/08/14 09:02:42;;;;;;;12.37;11.20;;;26.00;64.00;;;25.18;55.07;98476.19;4961746;28;20466;-80
2021/08/14 09:05:13;;;;;;;13.40;12.30;;;26.00;63.20;;;25.23;55.35;98483.59;4971594;28;20449;-79
2021/08/14 09:07:41;;;;;;;12.20;11.10;;;26.00;63.20;;;25.38;53.41;98473.41;4983992;28;20472;-80
2021/08/14 09:10:13;;;;;;;12.73;11.67;;;26.10;62.10;;;25.35;54.63;98465.72;4968440;28;20474;-82
2021/08/14 09:12:43;;;;;;;11.80;10.80;;;26.20;62.80;;;25.43;54.16;98482.44;4972300;28;20990;-80
2021/08/14 09:15:16;;;;;;;11.20;10.30;;;26.20;62.00;;;25.58;52.98;98486.09;4981193;28;20457;-80
2021/08/14 09:17:44;;;;;;;11.30;10.20;;;26.30;61.60;;;25.59;52.76;98488.53;4970232;28;20466;-79
2021/08/14 09:20:15;;;;;;;11.13;10.10;;;26.40;61.00;;;25.61;51.80;98485.47;4978063;28;20549;-79
2021/08/14 09:22:46;;;;;;;11.33;10.40;;;26.40;60.40;;;25.68;53.00;98488.66;4962939;28;20454;-80
2021/08/14 09:25:21;;;;;;;12.10;11.10;;;26.40;61.10;;;25.81;52.67;98494.50;4958750;28;20454;-79
2021/08/14 09:27:53;;;;;;;9.90;9.20;;;26.60;61.20;;;25.75;50.31;98482.72;4975733;28;20452;-79
2021/08/14 09:30:21;;;;;;;9.93;9.00;;;26.60;59.10;;;25.76;50.61;98489.88;4968497;28;20477;-80
2021/08/14 09:33:08;;;;;;;12.30;9.50;;;26.50;59.30;;;25.58;49.74;98486.09;4971217;28;20461;-79
2021/08/14 09:35:35;;;;;;;11.67;10.67;;;26.50;58.50;;;25.52;51.63;98485.34;4964834;28;20500;-80
2021/08/14 09:38:08;;;;;;;11.77;10.77;;;26.30;59.70;;;25.65;51.74;98472.66;4948347;28;20461;-81
2021/08/14 09:40:39;;;;;;;11.63;10.63;;;26.30;59.80;;;25.89;51.10;98478.03;4961324;28;20470;-80
2021/08/14 09:43:09;;;;;;;12.37;11.27;;;26.60;59.70;;;25.63;51.61;98468.56;4970201;28;20476;-82
2021/08/14 09:45:36;;;;;;;12.50;11.40;;;26.50;59.50;;;25.68;51.30;98465.72;4974602;28;20473;-80
2021/08/14 09:48:18;;;;;;;12.57;11.37;;;26.50;59.40;;;25.89;51.52;98471.69;4968226;28;20458;-81
2021/08/14 09:50:46;;;;;;;11.00;10.10;;;26.60;59.80;;;25.89;50.99;98460.63;4979611;28;20562;-80
2021/08/14 09:53:17;;;;;;;10.67;9.77;;;26.70;59.40;;;25.92;51.81;98461.94;4970574;28;20468;-80
2021/08/14 09:55:50;;;;;;;12.20;10.87;;;26.70;59.70;;;26.09;50.57;98453.03;4977604;28;20544;-80
2021/08/14 09:58:20;;;;;;;10.50;9.60;;;26.70;59.40;;;26.06;50.70;98464.72;4974055;28;20442;-80
2021/08/14 10:00:50;;;;;;;11.47;10.30;;;26.80;58.90;;;26.15;50.23;98441.53;4972554;28;20461;-79
2021/08/14 10:03:18;;;;;;;11.93;10.97;;;26.90;58.80;;;25.73;51.07;98451.78;4970767;28;20469;-79
2021/08/14 10:05:46;;;;;;;11.73;10.53;;;26.70;58.70;;;25.73;50.70;98444.31;4960773;28;20531;-80
2021/08/14 10:08:14;;;;;;;11.00;10.10;;;26.60;58.80;;;25.80;51.59;98443.91;4971529;28;20445;-80